Terminal Aerodrome Forecast
Issued by NWS Quad Cities IA IL

Home | Current Version | Previous Version | Text Only | Print | Product List | Glossary On
Versions: 1 2 3 4 5 6 7 8 9 10 11 12 13 14 15 16 17
000
FTUS43 KDVN 211100
TAFDBQ
TAF
KDBQ 211140Z 2112/2212 20007KT P6SM BKN050
     FM211500 18012KT P6SM SKC
     FM220200 16008KT P6SM BKN120=

USA.gov is the U.S. government's official web portal to all federal, state and local government web resources and services.